createdAt,value
2018-12-08T00:01:32.215Z,81.26
2018-12-08T00:04:00.568Z,81.37
2018-12-08T00:06:28.934Z,80.89
2018-12-08T00:08:57.316Z,79.57
2018-12-08T00:11:25.709Z,80.26
2018-12-08T00:13:54.072Z,81.45
2018-12-08T00:16:22.480Z,80.04
2018-12-08T00:18:50.749Z,80.66
2018-12-08T00:21:19.904Z,80.46
2018-12-08T00:23:48.361Z,79.88
2018-12-08T00:26:16.665Z,79.81
2018-12-08T00:28:44.961Z,80.25
2018-12-08T00:31:40.422Z,80.47
2018-12-08T00:34:08.770Z,80.36
2018-12-08T00:36:37.314Z,80.35
2018-12-08T00:39:07.672Z,80.02
2018-12-08T00:41:36.064Z,79.17
2018-12-08T00:44:04.448Z,80.05
2018-12-08T00:46:32.742Z,79.29
2018-12-08T00:49:01.046Z,79.81
2018-12-08T00:51:29.517Z,79.60
2018-12-08T00:53:59.832Z,79.68
2018-12-08T00:56:28.297Z,79.52
2018-12-08T00:58:56.571Z,80.03
2018-12-08T01:01:25.085Z,80.24
2018-12-08T01:03:53.633Z,80.65
2018-12-08T01:06:21.942Z,81.23
2018-12-08T01:08:50.305Z,80.60
2018-12-08T01:11:18.639Z,81.06
2018-12-08T01:13:47.045Z,80.41
2018-12-08T01:16:15.362Z,80.16
2018-12-08T01:18:43.664Z,80.48
2018-12-08T01:21:11.952Z,79.87
2018-12-08T01:23:40.679Z,79.87
2018-12-08T01:26:09.005Z,80.39
2018-12-08T01:28:37.343Z,80.82
2018-12-08T01:31:08.998Z,80.86
2018-12-08T01:33:37.286Z,80.40
2018-12-08T01:36:05.697Z,79.92
2018-12-08T01:38:34.028Z,80.19
2018-12-08T01:41:02.329Z,80.44
2018-12-08T01:43:30.746Z,81.00
2018-12-08T01:45:59.349Z,80.98
2018-12-08T01:48:27.654Z,80.40
2018-12-08T01:50:55.935Z,79.46
2018-12-08T01:53:24.362Z,79.46
2018-12-08T01:55:52.657Z,79.69
2018-12-08T01:58:20.955Z,80.37
2018-12-08T02:00:49.326Z,79.36
2018-12-08T02:03:17.686Z,80.04
2018-12-08T02:05:45.965Z,79.87
2018-12-08T02:08:14.462Z,80.33
2018-12-08T02:10:42.785Z,80.32
2018-12-08T02:13:11.057Z,80.12
2018-12-08T02:15:39.565Z,80.17
2018-12-08T02:18:07.873Z,80.51
2018-12-08T02:20:36.161Z,80.10
2018-12-08T02:23:04.506Z,79.64
2018-12-08T02:25:32.804Z,79.69
2018-12-08T02:28:01.093Z,79.31
2018-12-08T02:30:29.747Z,79.08
2018-12-08T02:32:58.101Z,80.15
2018-12-08T02:35:26.400Z,80.16
2018-12-08T02:37:54.796Z,79.00
2018-12-08T02:40:23.154Z,78.91
2018-12-08T02:42:51.441Z,79.84
2018-12-08T02:45:19.805Z,80.22
2018-12-08T02:47:48.112Z,80.29
2018-12-08T02:50:16.478Z,80.08
2018-12-08T02:52:44.983Z,80.42
2018-12-08T02:55:13.272Z,81.06
2018-12-08T02:57:41.576Z,80.32
2018-12-08T03:00:10.075Z,80.56
2018-12-08T03:02:38.443Z,81.35
2018-12-08T03:05:06.882Z,80.76
2018-12-08T03:07:35.271Z,79.62
2018-12-08T03:10:04.042Z,80.47
2018-12-08T03:12:32.335Z,79.82
2018-12-08T03:15:01.248Z,78.79
2018-12-08T03:17:29.576Z,78.70
2018-12-08T03:19:57.886Z,78.83
2018-12-08T03:22:26.580Z,79.32
2018-12-08T03:24:54.905Z,79.18
2018-12-08T03:27:23.257Z,78.60
2018-12-08T03:29:51.778Z,79.03
2018-12-08T03:32:20.156Z,78.39
2018-12-08T03:34:48.519Z,78.46
2018-12-08T03:37:17.629Z,78.26
2018-12-08T03:39:45.928Z,78.33
2018-12-08T03:42:14.265Z,77.24
2018-12-08T03:44:42.659Z,76.18
2018-12-08T03:47:11.028Z,76.81
2018-12-08T03:49:39.329Z,76.67
2018-12-08T03:52:07.820Z,76.79
2018-12-08T03:54:36.143Z,76.14
2018-12-08T03:57:04.544Z,76.23
2018-12-08T03:59:32.960Z,76.97
2018-12-08T04:02:01.255Z,76.12
2018-12-08T04:04:29.694Z,75.95
2018-12-08T04:06:58.067Z,75.79
2018-12-08T04:09:26.366Z,76.24
2018-12-08T04:11:54.717Z,76.23
2018-12-08T04:14:23.042Z,76.82
2018-12-08T04:16:51.342Z,77.27
2018-12-08T04:19:19.625Z,76.50
2018-12-08T04:21:48.270Z,76.61
2018-12-08T04:24:16.704Z,76.67
2018-12-08T04:26:44.987Z,75.95
2018-12-08T04:29:13.473Z,75.83
2018-12-08T04:31:41.787Z,75.39
2018-12-08T04:34:10.106Z,74.71
2018-12-08T04:36:38.447Z,74.79
2018-12-08T04:39:07.299Z,75.01
2018-12-08T04:41:35.653Z,75.08
2018-12-08T04:44:04.324Z,75.76
2018-12-08T04:46:32.593Z,75.14
2018-12-08T04:49:01.118Z,75.07
2018-12-08T04:51:29.476Z,74.38
2018-12-08T04:53:57.800Z,75.02
2018-12-08T04:56:26.076Z,74.32
2018-12-08T04:58:54.397Z,74.29
2018-12-08T05:01:22.770Z,75.22
2018-12-08T05:03:51.109Z,74.19
2018-12-08T05:06:19.828Z,74.31
2018-12-08T05:08:48.129Z,74.41
2018-12-08T05:11:16.452Z,75.27
2018-12-08T05:13:44.851Z,75.10
2018-12-08T05:16:13.138Z,75.89
2018-12-08T05:18:41.450Z,75.64
2018-12-08T05:21:09.833Z,75.16
2018-12-08T05:23:38.113Z,75.33
2018-12-08T05:26:06.391Z,75.40
2018-12-08T05:28:35.174Z,76.11
2018-12-08T05:31:03.520Z,77.08
2018-12-08T05:33:31.836Z,77.35
2018-12-08T05:36:00.167Z,76.15
2018-12-08T05:38:28.514Z,76.58
2018-12-08T05:40:56.799Z,76.94
2018-12-08T05:43:25.122Z,77.84
2018-12-08T05:45:53.412Z,77.18
2018-12-08T05:48:21.711Z,78.04
2018-12-08T05:50:50.464Z,77.62
2018-12-08T05:53:18.816Z,77.70
2018-12-08T05:55:47.139Z,78.25
2018-12-08T05:58:15.500Z,78.10
2018-12-08T06:00:43.816Z,77.40
2018-12-08T06:03:12.129Z,78.15
2018-12-08T06:05:40.484Z,77.99
2018-12-08T06:08:08.905Z,78.31
2018-12-08T06:10:37.183Z,78.59
2018-12-08T06:13:05.985Z,77.52
2018-12-08T06:15:34.283Z,78.67
2018-12-08T06:18:02.586Z,78.03
2018-12-08T06:20:30.923Z,77.74
2018-12-08T06:22:59.205Z,78.65
2018-12-08T06:25:28.407Z,77.42
2018-12-08T06:28:02.519Z,78.44
2018-12-08T06:30:30.797Z,77.32
2018-12-08T06:32:59.078Z,78.32
2018-12-08T06:35:27.444Z,77.86
2018-12-08T06:37:55.757Z,77.03
2018-12-08T06:40:29.243Z,78.56
2018-12-08T06:42:54.519Z,78.74
2018-12-08T06:45:22.824Z,79.06
2018-12-08T06:47:51.124Z,78.08
2018-12-08T06:50:19.609Z,77.85
2018-12-08T06:52:48.769Z,77.93
2018-12-08T06:55:17.080Z,77.01
2018-12-08T06:57:45.816Z,77.25
2018-12-08T07:00:14.249Z,77.21
2018-12-08T07:02:42.585Z,77.59
2018-12-08T07:05:11.159Z,77.53
2018-12-08T07:07:39.444Z,76.75
2018-12-08T07:10:07.823Z,76.50
2018-12-08T07:12:36.165Z,77.09
2018-12-08T07:15:05.345Z,76.18
2018-12-08T07:17:33.665Z,76.37
2018-12-08T07:20:02.154Z,76.64
2018-12-08T07:22:30.443Z,76.15
2018-12-08T07:24:58.745Z,76.43
2018-12-08T07:27:27.042Z,76.38
2018-12-08T07:29:55.323Z,77.17
2018-12-08T07:32:23.593Z,76.74
2018-12-08T07:34:51.935Z,76.50
2018-12-08T07:37:20.271Z,76.53
2018-12-08T07:39:48.644Z,76.95
2018-12-08T07:42:17.276Z,76.73
2018-12-08T07:44:45.599Z,78.23
2018-12-08T07:47:13.864Z,78.72
2018-12-08T07:49:42.251Z,79.19
2018-12-08T07:52:10.565Z,79.67
2018-12-08T07:54:38.877Z,79.49
2018-12-08T07:57:07.228Z,78.76
2018-12-08T07:59:35.599Z,79.09
2018-12-08T08:02:04.006Z,80.78
2018-12-08T08:04:32.444Z,79.61
2018-12-08T08:07:00.740Z,81.69
2018-12-08T08:09:29.041Z,82.15
2018-12-08T08:11:57.376Z,82.89
2018-12-08T08:14:25.723Z,82.71
2018-12-08T08:16:54.060Z,83.19
2018-12-08T08:19:22.387Z,82.78
2018-12-08T08:21:51.092Z,83.28
2018-12-08T08:24:19.401Z,83.97
2018-12-08T08:26:47.794Z,83.35
2018-12-08T08:29:16.131Z,82.57
2018-12-08T08:31:44.494Z,82.77
2018-12-08T08:34:12.857Z,82.57
2018-12-08T08:36:41.166Z,82.49
2018-12-08T08:39:09.494Z,82.37
2018-12-08T08:41:37.833Z,82.94
2018-12-08T08:44:06.138Z,82.76
2018-12-08T08:46:34.482Z,82.31
2018-12-08T08:49:02.913Z,82.22
2018-12-08T08:51:31.234Z,83.20
2018-12-08T08:53:59.545Z,82.61
2018-12-08T08:56:27.933Z,81.52
2018-12-08T08:58:56.278Z,81.79
2018-12-08T09:01:24.807Z,81.47
2018-12-08T09:03:53.339Z,81.60
2018-12-08T09:06:21.613Z,81.52
2018-12-08T09:08:49.938Z,81.83
2018-12-08T09:11:18.461Z,80.48
2018-12-08T09:13:46.762Z,80.28
2018-12-08T09:16:15.106Z,80.43
2018-12-08T09:18:43.445Z,79.44
2018-12-08T09:21:11.754Z,80.33
2018-12-08T09:23:40.078Z,79.27
2018-12-08T09:26:08.408Z,80.03
2018-12-08T09:28:36.698Z,79.79
2018-12-08T09:31:05.033Z,80.73
2018-12-08T09:33:33.625Z,81.02
2018-12-08T09:36:01.940Z,79.75
2018-12-08T09:38:30.240Z,80.15
2018-12-08T09:40:58.593Z,79.83
2018-12-08T09:43:26.899Z,79.79
2018-12-08T09:45:55.222Z,80.33
2018-12-08T09:48:23.546Z,79.73
2018-12-08T09:50:54.873Z,78.34
2018-12-08T09:53:23.176Z,79.71
2018-12-08T09:55:51.939Z,78.95
2018-12-08T09:58:20.306Z,78.50
2018-12-08T10:00:48.654Z,79.17
2018-12-08T10:03:17.151Z,78.36
2018-12-08T10:05:45.501Z,78.94
2018-12-08T10:08:13.807Z,79.50
2018-12-08T10:10:42.131Z,79.03
2018-12-08T10:13:10.532Z,78.32
2018-12-08T10:15:39.582Z,78.73
2018-12-08T10:18:08.064Z,78.63
2018-12-08T10:20:36.516Z,79.10
2018-12-08T10:23:04.878Z,78.98
2018-12-08T10:25:33.221Z,80.34
2018-12-08T10:28:01.511Z,79.98
2018-12-08T10:30:29.860Z,79.34
2018-12-08T10:32:58.706Z,78.47
2018-12-08T10:35:27.071Z,79.74
2018-12-08T10:37:55.360Z,80.25
2018-12-08T10:40:23.940Z,81.09
2018-12-08T10:42:52.252Z,81.83
2018-12-08T10:45:20.599Z,81.07
2018-12-08T10:47:48.933Z,80.86
2018-12-08T10:50:17.280Z,80.85
2018-12-08T10:52:45.624Z,82.13
2018-12-08T10:55:13.990Z,82.82
2018-12-08T10:57:42.306Z,84.18
2018-12-08T11:00:12.645Z,84.51
2018-12-08T11:02:41.129Z,85.64
2018-12-08T11:05:09.497Z,84.78
2018-12-08T11:07:37.876Z,84.81
2018-12-08T11:10:06.285Z,84.48
2018-12-08T11:12:34.588Z,83.66
2018-12-08T11:15:03.042Z,84.72
2018-12-08T11:17:31.363Z,84.43
2018-12-08T11:19:59.702Z,83.94
2018-12-08T11:22:28.023Z,83.93
2018-12-08T11:24:56.707Z,83.29
2018-12-08T11:27:25.030Z,83.44
2018-12-08T11:29:53.422Z,82.08
2018-12-08T11:32:21.813Z,81.93
2018-12-08T11:34:50.125Z,81.32
2018-12-08T11:37:18.445Z,82.00
2018-12-08T11:39:46.761Z,82.08
2018-12-08T11:42:16.120Z,82.55
2018-12-08T11:44:45.167Z,83.39
2018-12-08T11:47:13.689Z,82.70
2018-12-08T11:49:43.070Z,83.07
2018-12-08T11:52:11.602Z,83.56
2018-12-08T11:54:39.942Z,84.35
2018-12-08T11:57:10.249Z,83.36
2018-12-08T11:59:38.571Z,83.63
2018-12-08T12:02:06.938Z,83.24
2018-12-08T12:04:35.222Z,83.00
2018-12-08T12:07:03.510Z,83.26
2018-12-08T12:09:31.924Z,83.61
2018-12-08T12:12:00.232Z,83.60
2018-12-08T12:14:41.271Z,83.31
2018-12-08T12:17:09.569Z,83.15
2018-12-08T12:19:37.902Z,83.52
2018-12-08T12:22:06.249Z,84.14
2018-12-08T12:24:34.579Z,85.19
2018-12-08T12:27:02.918Z,84.92
2018-12-08T12:29:31.638Z,85.40
2018-12-08T12:31:59.945Z,85.87
2018-12-08T12:34:28.300Z,86.57
2018-12-08T12:36:56.632Z,86.21
2018-12-08T12:39:24.938Z,86.17
2018-12-08T12:41:53.214Z,85.65
2018-12-08T12:44:21.505Z,86.39
2018-12-08T12:46:49.834Z,86.34
2018-12-08T12:49:18.195Z,86.20
2018-12-08T12:51:46.614Z,85.58
2018-12-08T12:54:14.914Z,87.35
2018-12-08T12:56:43.244Z,87.54
2018-12-08T12:59:11.829Z,87.23
2018-12-08T13:01:40.208Z,86.92
2018-12-08T13:04:08.500Z,86.63
2018-12-08T13:06:36.875Z,86.41
2018-12-08T13:09:06.559Z,86.47
2018-12-08T13:11:34.865Z,86.28
2018-12-08T13:14:03.337Z,87.68
2018-12-08T13:16:31.697Z,87.34
2018-12-08T13:19:00.027Z,86.63
2018-12-08T13:21:28.381Z,88.26
2018-12-08T13:23:56.701Z,87.54
2018-12-08T13:26:25.106Z,88.07
2018-12-08T13:28:53.473Z,87.97
2018-12-08T13:31:21.814Z,88.06
2018-12-08T13:33:52.087Z,86.79
2018-12-08T13:36:20.563Z,87.27
2018-12-08T13:38:48.900Z,86.52
2018-12-08T13:41:17.274Z,85.55
2018-12-08T13:43:51.419Z,85.24
2018-12-08T13:46:19.873Z,84.88
2018-12-08T13:48:48.199Z,84.63
2018-12-08T13:51:16.589Z,84.68
2018-12-08T13:53:44.941Z,84.12
2018-12-08T13:56:13.254Z,83.76
2018-12-08T13:58:41.754Z,84.34
2018-12-08T14:01:10.134Z,82.92
2018-12-08T14:03:38.442Z,83.14
2018-12-08T14:06:06.826Z,83.33
2018-12-08T14:08:35.130Z,82.46
2018-12-08T14:11:03.514Z,82.11
2018-12-08T14:13:31.848Z,83.41
2018-12-08T14:16:00.150Z,82.87
2018-12-08T14:18:28.667Z,83.06
2018-12-08T14:20:57.423Z,82.35
2018-12-08T14:23:25.748Z,81.92
2018-12-08T14:25:54.084Z,82.03
2018-12-08T14:28:22.412Z,84.19
2018-12-08T14:30:50.711Z,84.02
2018-12-08T14:33:19.003Z,83.85
2018-12-08T14:35:47.460Z,83.43
2018-12-08T14:38:15.784Z,83.57
2018-12-08T14:40:44.175Z,83.79
2018-12-08T14:43:12.666Z,82.82
2018-12-08T14:45:40.952Z,82.69
2018-12-08T14:48:09.488Z,83.42
2018-12-08T14:50:37.825Z,83.03
2018-12-08T14:53:06.207Z,82.35
2018-12-08T14:55:34.505Z,82.10
2018-12-08T14:58:03.822Z,81.98
2018-12-08T15:00:32.626Z,81.92
2018-12-08T15:03:00.936Z,81.83
2018-12-08T15:05:29.539Z,82.66
2018-12-08T15:07:57.817Z,82.94
2018-12-08T15:10:26.301Z,82.25
2018-12-08T15:12:54.676Z,83.68
2018-12-08T15:15:22.994Z,83.48
2018-12-08T15:17:51.330Z,83.35
2018-12-08T15:20:20.160Z,84.94
2018-12-08T15:22:48.470Z,84.59
2018-12-08T15:25:16.871Z,84.44
2018-12-08T15:27:45.643Z,85.15
2018-12-08T15:30:14.093Z,85.23
2018-12-08T15:32:42.474Z,84.93
2018-12-08T15:35:10.825Z,85.63
2018-12-08T15:37:39.227Z,85.64
2018-12-08T15:40:07.653Z,86.26
2018-12-08T15:42:36.019Z,86.59
2018-12-08T15:45:06.754Z,86.78
2018-12-08T15:47:35.094Z,86.89
2018-12-08T15:50:05.849Z,87.15
2018-12-08T15:52:34.234Z,86.17
2018-12-08T15:55:02.585Z,86.13
2018-12-08T15:57:30.894Z,86.66
2018-12-08T15:59:59.235Z,85.24
2018-12-08T16:02:27.545Z,85.26
2018-12-08T16:04:55.903Z,84.86
2018-12-08T16:07:24.243Z,85.43
2018-12-08T16:09:52.534Z,85.79
2018-12-08T16:12:20.950Z,84.14
2018-12-08T16:14:49.330Z,84.09
2018-12-08T16:17:17.703Z,83.37
2018-12-08T16:19:46.044Z,82.80
2018-12-08T16:22:14.762Z,82.88
2018-12-08T16:24:43.034Z,83.68
2018-12-08T16:27:11.465Z,84.79
2018-12-08T16:29:39.834Z,85.50
2018-12-08T16:32:08.214Z,84.86
2018-12-08T16:34:36.792Z,84.01
2018-12-08T16:37:05.081Z,82.67
2018-12-08T16:39:33.466Z,83.50
2018-12-08T16:42:01.800Z,82.84
2018-12-08T16:44:30.145Z,82.76
2018-12-08T16:46:58.457Z,82.75
2018-12-08T16:49:26.863Z,83.11
2018-12-08T16:51:55.160Z,83.10
2018-12-08T16:54:23.446Z,82.42
2018-12-08T16:56:52.262Z,82.64
2018-12-08T16:59:20.655Z,83.07
2018-12-08T17:01:52.438Z,83.72
2018-12-08T17:04:22.048Z,82.66
2018-12-08T17:06:50.427Z,81.28
2018-12-08T17:09:18.792Z,81.50
2018-12-08T17:11:47.169Z,82.73
2018-12-08T17:14:15.523Z,82.59
2018-12-08T17:16:43.965Z,81.35
2018-12-08T17:19:12.231Z,80.91
2018-12-08T17:21:40.632Z,80.65
2018-12-08T17:24:08.958Z,81.44
2018-12-08T17:26:37.470Z,80.61
2018-12-08T17:29:06.135Z,80.90
2018-12-08T17:31:35.017Z,81.00
2018-12-08T17:34:03.431Z,81.24
2018-12-08T17:36:31.774Z,80.74
2018-12-08T17:39:00.803Z,80.71
2018-12-08T17:41:29.123Z,79.76
2018-12-08T17:43:57.440Z,79.28
2018-12-08T17:46:25.807Z,79.29
2018-12-08T17:48:54.104Z,78.97
2018-12-08T17:51:22.713Z,79.62
2018-12-08T17:53:51.021Z,79.83
2018-12-08T17:56:19.332Z,79.70
2018-12-08T17:58:47.641Z,79.22
2018-12-08T18:01:16.197Z,78.41
2018-12-08T18:03:44.475Z,79.29
2018-12-08T18:06:12.769Z,79.49
2018-12-08T18:08:41.149Z,78.54
2018-12-08T18:11:09.474Z,79.41
2018-12-08T18:13:37.758Z,80.51
2018-12-08T18:16:06.166Z,81.86
2018-12-08T18:18:34.520Z,81.68
2018-12-08T18:21:02.851Z,81.63
2018-12-08T18:23:31.874Z,82.08
2018-12-08T18:26:00.186Z,81.94
2018-12-08T18:28:28.478Z,81.00
2018-12-08T18:30:56.889Z,80.14
2018-12-08T18:33:25.261Z,80.34
2018-12-08T18:35:53.609Z,80.17
2018-12-08T18:38:21.978Z,79.61
2018-12-08T18:40:50.267Z,79.88
2018-12-08T18:43:23.215Z,80.26
2018-12-08T18:45:51.540Z,79.82
2018-12-08T18:48:19.849Z,78.89
2018-12-08T18:50:48.193Z,78.38
2018-12-08T18:53:16.524Z,79.60
2018-12-08T18:55:44.879Z,80.47
2018-12-08T18:58:13.245Z,79.89
2018-12-08T19:00:41.585Z,79.58
2018-12-08T19:03:10.063Z,80.22
2018-12-08T19:05:38.825Z,79.54
2018-12-08T19:08:07.224Z,79.05
2018-12-08T19:10:35.541Z,78.23
2018-12-08T19:13:03.953Z,78.06
2018-12-08T19:15:32.322Z,78.61
2018-12-08T19:18:00.650Z,77.43
2018-12-08T19:20:29.016Z,76.92
2018-12-08T19:22:57.315Z,77.10
2018-12-08T19:25:25.679Z,77.15
2018-12-08T19:27:54.518Z,77.51
2018-12-08T19:30:22.854Z,77.13
2018-12-08T19:32:51.135Z,76.90
2018-12-08T19:35:19.529Z,77.14
2018-12-08T19:37:47.817Z,76.98
2018-12-08T19:40:16.218Z,76.85
2018-12-08T19:42:44.710Z,76.45
2018-12-08T19:45:13.207Z,77.05
2018-12-08T19:47:41.550Z,76.62
2018-12-08T19:50:10.035Z,76.16
2018-12-08T19:52:38.374Z,75.93
2018-12-08T19:55:06.825Z,75.82
2018-12-08T19:57:35.117Z,76.81
2018-12-08T20:00:04.033Z,75.87
2018-12-08T20:02:32.364Z,76.99
2018-12-08T20:05:00.792Z,77.20
2018-12-08T20:07:29.107Z,76.38
2018-12-08T20:09:57.435Z,76.90
2018-12-08T20:12:26.399Z,76.27
2018-12-08T20:14:54.729Z,77.26
2018-12-08T20:17:23.056Z,77.28
2018-12-08T20:19:51.474Z,78.29
2018-12-08T20:22:19.812Z,78.42
2018-12-08T20:24:48.219Z,78.95
2018-12-08T20:27:16.516Z,78.81
2018-12-08T20:29:44.817Z,79.23
2018-12-08T20:32:13.288Z,79.59
2018-12-08T20:34:42.626Z,79.55
2018-12-08T20:37:10.948Z,79.41
2018-12-08T20:39:39.286Z,80.15
2018-12-08T20:42:07.647Z,79.77
2018-12-08T20:44:36.134Z,78.97
2018-12-08T20:47:04.502Z,78.61
2018-12-08T20:49:32.817Z,78.25
2018-12-08T20:52:01.172Z,78.07
2018-12-08T20:54:29.486Z,78.49
2018-12-08T20:56:57.872Z,78.59
2018-12-08T20:59:26.171Z,78.77
2018-12-08T21:01:54.495Z,77.67
2018-12-08T21:04:22.828Z,77.84
2018-12-08T21:06:51.139Z,78.14
2018-12-08T21:09:19.524Z,77.96
2018-12-08T21:11:48.113Z,77.81
2018-12-08T21:14:16.410Z,76.72
2018-12-08T21:16:44.719Z,76.69
2018-12-08T21:19:13.516Z,76.92
2018-12-08T21:21:42.930Z,76.47
2018-12-08T21:24:11.242Z,77.27
2018-12-08T21:26:39.595Z,77.57
2018-12-08T21:29:07.914Z,78.90
2018-12-08T21:31:36.255Z,80.08
2018-12-08T21:34:04.647Z,80.54
2018-12-08T21:36:32.997Z,81.68
2018-12-08T21:39:01.339Z,81.45
2018-12-08T21:41:29.786Z,82.77
2018-12-08T21:43:58.091Z,82.96
2018-12-08T21:46:26.377Z,83.78
2018-12-08T21:48:54.706Z,85.38
2018-12-08T21:51:23.032Z,84.89
2018-12-08T21:53:51.335Z,85.56
2018-12-08T21:56:19.676Z,86.73
2018-12-08T21:58:47.972Z,86.28
2018-12-08T22:01:16.611Z,88.04
2018-12-08T22:03:45.366Z,88.24
2018-12-08T22:06:13.694Z,86.68
2018-12-08T22:08:42.017Z,85.57
2018-12-08T22:11:10.494Z,85.75
2018-12-08T22:13:38.803Z,86.28
2018-12-08T22:16:07.123Z,86.60
2018-12-08T22:18:35.422Z,88.22
2018-12-08T22:21:03.764Z,89.41
2018-12-08T22:23:32.074Z,89.98
2018-12-08T22:26:00.942Z,89.56
2018-12-08T22:28:29.253Z,90.07
2018-12-08T22:30:57.550Z,90.49
2018-12-08T22:33:25.870Z,89.94
2018-12-08T22:35:54.196Z,90.53
2018-12-08T22:38:22.479Z,90.32
2018-12-08T22:40:50.896Z,89.49
2018-12-08T22:43:19.172Z,89.99
2018-12-08T22:45:47.445Z,90.47
2018-12-08T22:48:15.901Z,90.87
2018-12-08T22:50:44.207Z,90.53
2018-12-08T22:53:12.497Z,90.91
2018-12-08T22:55:40.824Z,91.01
2018-12-08T22:58:09.227Z,92.02
2018-12-08T23:00:46.688Z,90.91
2018-12-08T23:03:15.164Z,90.59
2018-12-08T23:05:43.668Z,90.36
2018-12-08T23:08:12.493Z,90.61
2018-12-08T23:10:40.848Z,90.81
2018-12-08T23:13:09.120Z,90.70
2018-12-08T23:15:37.541Z,91.29
2018-12-08T23:18:05.860Z,91.29
2018-12-08T23:20:34.233Z,91.29
2018-12-08T23:23:02.711Z,91.09
2018-12-08T23:25:31.117Z,92.39
2018-12-08T23:27:59.456Z,91.52
2018-12-08T23:30:27.957Z,91.39
2018-12-08T23:32:56.330Z,90.68
2018-12-08T23:35:24.666Z,90.71
2018-12-08T23:37:53.149Z,90.63
2018-12-08T23:40:21.469Z,90.63
2018-12-08T23:42:49.809Z,91.49
2018-12-08T23:45:18.147Z,91.06
2018-12-08T23:47:46.487Z,90.34
2018-12-08T23:50:14.793Z,90.96
2018-12-08T23:52:43.315Z,91.69
2018-12-08T23:55:11.647Z,91.81
2018-12-08T23:57:39.973Z,90.42
